Colona, Illinois
Current Conditions -  °F | °C
As of 11:52 PM on Friday 19 Dec 2014 (Local Time) from KMLI Reporting Station
Overcast Overcast  
Wind Chill: 29°   Ceiling: 4300
Heat Index: 29°   Visibility: 8mi
Dew Point: 24°   Wind: 0mph
Humidity: 82%   Direction: NA
Pressure: 30.27"   Gusts: NA
Location:  41.48°N, 90.35°W
Report Text: KMLI 200552Z AUTO 00000KT 8SM OVC043 M02/M04 A3027 RMK AO2 SLP256 T10171044 11017 21050 400001094 50002
Loading
Personal Weather Stations






























Interactive Weather Map New forecast layout! Learn more

10-Day Weather Forecast

Advertisements
Track Severe Weather on mobile